Time;durP1;ratioP1;P1;durP2;ratioP2;P2;SDS_P1;SDS_P2;PMS_P1;PMS_P2;Temp;Humidity;BMP_temperature;BMP_pressure;BME280_temperature;BME280_humidity;BME280_pressure;Samples;Min_cycle;Max_cycle;Signal;HPM_P1;HPM_P2
2021/03/25 00:00:15;;;;;;;54.00;27.77;;;;;;;5.74;64.02;101500.44;690029;28;23474;-62
2021/03/25 00:00:37;;;;;;;53.08;27.85;;;;;;;5.73;63.88;101497.88;687775;28;76826;-61
2021/03/25 00:01:00;;;;;;;56.95;30.15;;;;;;;5.75;64.27;101499.47;688579;28;46395;-62
2021/03/25 00:01:23;;;;;;;51.95;28.75;;;;;;;5.74;64.38;101497.75;688842;28;17742;-63
2021/03/25 00:01:46;;;;;;;54.03;28.67;;;;;;;5.75;64.02;101498.59;688374;28;65625;-62
2021/03/25 00:02:07;;;;;;;52.10;27.83;;;;;;;5.75;64.18;101499.47;687562;28;68232;-62
2021/03/25 00:02:29;;;;;;;49.65;27.90;;;;;;;5.76;64.38;101497.63;689289;28;23552;-63
2021/03/25 00:02:50;;;;;;;47.75;27.95;;;;;;;5.75;64.47;101503.97;688561;28;46306;-63
2021/03/25 00:03:14;;;;;;;49.03;27.95;;;;;;;5.74;64.42;101500.44;690155;28;21541;-63
2021/03/25 00:03:37;;;;;;;50.15;27.45;;;;;;;5.74;64.15;101494.22;686963;28;93077;-63
2021/03/25 00:03:58;;;;;;;51.53;28.23;;;;;;;5.74;64.17;101495.06;688013;28;69921;-62
2021/03/25 00:04:21;;;;;;;48.60;28.80;;;;;;;5.74;64.27;101495.06;689779;28;22387;-62
2021/03/25 00:04:42;;;;;;;47.78;28.83;;;;;;;5.73;64.31;101497.88;688350;28;67499;-62
2021/03/25 00:05:04;;;;;;;52.47;29.58;;;;;;;5.75;64.22;101498.59;690037;28;22202;-62
2021/03/25 00:05:28;;;;;;;54.43;30.13;;;;;;;5.75;64.40;101498.59;687835;28;67478;-61
2021/03/25 00:05:50;;;;;;;52.03;30.15;;;;;;;5.75;64.38;101496.78;687030;28;89747;-62
2021/03/25 00:06:12;;;;;;;57.22;31.55;;;;;;;5.72;64.28;101491.69;689048;28;46389;-63
2021/03/25 00:06:35;;;;;;;62.83;34.53;;;;;;;5.74;64.47;101497.75;689067;28;46396;-62
2021/03/25 00:06:58;;;;;;;58.90;34.10;;;;;;;5.74;64.23;101496.91;688120;28;68400;-64
2021/03/25 00:07:19;;;;;;;60.63;35.42;;;;;;;5.75;64.26;101495.91;688088;28;69444;-63
2021/03/25 00:07:41;;;;;;;62.53;34.92;;;;;;;5.75;64.59;101499.47;689507;28;22356;-62
2021/03/25 00:08:05;;;;;;;61.10;34.92;;;;;;;5.75;64.27;101498.59;688779;28;46394;-63
2021/03/25 00:08:27;;;;;;;67.15;36.17;;;;;;;5.75;64.30;101490.56;686828;28;114959;-62
2021/03/25 00:08:52;;;;;;;61.70;35.00;;;;;;;5.71;64.54;101489.97;688664;28;34699;-62
2021/03/25 00:09:17;;;;;;;61.17;34.05;;;;;;;5.76;64.54;101501.16;690521;28;1586;-62
2021/03/25 00:09:39;;;;;;;57.58;34.30;;;;;;;5.76;64.38;101494.94;686913;28;92356;-63
2021/03/25 00:10:10;;;;;;;57.63;33.85;;;;;;;5.75;64.44;101496.78;687637;28;84389;-62
2021/03/25 00:10:34;;;;;;;55.47;33.83;;;;;;;5.75;64.53;101493.22;687476;28;62047;-63
2021/03/25 00:10:55;;;;;;;61.80;34.83;;;;;;;5.75;64.43;101496.78;687533;28;89849;-63
2021/03/25 00:11:17;;;;;;;60.92;34.88;;;;;;;5.74;64.40;101488.88;689732;28;22516;-62
2021/03/25 00:11:38;;;;;;;58.35;34.85;;;;;;;5.75;64.42;101493.22;688556;28;46248;-62
2021/03/25 00:12:00;;;;;;;58.58;34.72;;;;;;;5.73;64.33;101490.69;690224;28;11398;-61
2021/03/25 00:12:21;;;;;;;54.13;33.25;;;;;;;5.72;64.29;101491.69;689493;28;44386;-59
2021/03/25 00:12:42;;;;;;;59.65;33.75;;;;;;;5.69;64.41;101486.56;690061;28;18907;-60
2021/03/25 00:13:04;;;;;;;62.72;35.80;;;;;;;5.71;64.47;101487.28;690384;28;16621;-61
2021/03/25 00:13:26;;;;;;;63.13;36.20;;;;;;;5.72;64.58;101493.50;688379;28;69458;-62
2021/03/25 00:13:47;;;;;;;67.45;37.15;;;;;;;5.71;64.45;101489.13;688579;28;45353;-58
2021/03/25 00:14:08;;;;;;;69.65;39.58;;;;;;;5.70;64.53;101490.94;690210;28;16928;-62
2021/03/25 00:14:30;;;;;;;63.50;38.42;;;;;;;5.70;64.56;101488.25;690721;28;1241;-61
2021/03/25 00:14:51;;;;;;;63.53;36.35;;;;;;;5.68;64.58;101484.03;689345;28;42259;-59
2021/03/25 00:15:13;;;;;;;62.47;36.00;;;;;;;5.66;64.51;101486.81;690848;28;862;-60
2021/03/25 00:15:35;;;;;;;60.97;35.17;;;;;;;5.66;64.61;101478.78;685474;28;46393;-59
2021/03/25 00:15:56;;;;;;;58.65;33.28;;;;;;;5.69;64.48;101488.38;685490;28;47597;-60
2021/03/25 00:16:17;;;;;;;58.25;34.05;;;;;;;5.68;64.62;101490.22;687086;28;21354;-62
2021/03/25 00:16:39;;;;;;;60.90;35.20;;;;;;;5.68;64.56;101489.38;686939;28;22417;-60
2021/03/25 00:17:00;;;;;;;59.88;33.72;;;;;;;5.66;64.56;101489.50;686091;28;47252;-60
2021/03/25 00:17:21;;;;;;;60.75;34.10;;;;;;;5.65;64.65;101484.28;688080;28;937;-61
2021/03/25 00:17:42;;;;;;;60.83;34.53;;;;;;;5.64;64.38;101486.06;690319;28;3797;-57
2021/03/25 00:18:05;;;;;;;57.90;33.65;;;;;;;5.64;64.39;101479.88;689933;28;14921;-60
2021/03/25 00:18:26;;;;;;;59.57;34.13;;;;;;;5.63;64.38;101487.06;687090;28;93391;-60
2021/03/25 00:18:48;;;;;;;60.65;34.70;;;;;;;5.62;64.51;101485.38;688469;28;46361;-60
2021/03/25 00:19:10;;;;;;;61.45;35.50;;;;;;;5.60;64.63;101480.13;690217;28;19906;-60
2021/03/25 00:19:34;;;;;;;61.22;34.95;;;;;;;5.59;64.45;101478.44;687146;28;13461;-59
2021/03/25 00:19:55;;;;;;;61.55;35.83;;;;;;;5.61;64.67;101480.97;686094;28;46333;-58
2021/03/25 00:20:17;;;;;;;60.10;35.25;;;;;;;5.57;64.53;101484.91;687030;28;18196;-63
2021/03/25 00:20:38;;;;;;;60.63;34.97;;;;;;;5.56;64.83;101478.69;686224;28;40701;-62
2021/03/25 00:20:59;;;;;;;60.95;36.30;;;;;;;5.59;64.52;101486.50;686735;28;20833;-61
2021/03/25 00:21:26;;;;;;;58.53;34.50;;;;;;;5.58;64.41;101479.41;687391;28;38732;-58
2021/03/25 00:21:53;;;;;;;58.00;32.78;;;;;;;5.59;64.33;101488.28;688431;28;61213;-60
2021/03/25 00:22:14;;;;;;;57.20;32.53;;;;;;;5.55;64.22;101477.00;689869;28;6135;-60
2021/03/25 00:22:36;;;;;;;57.03;32.63;;;;;;;5.55;64.27;101477.00;690351;28;4465;-60
2021/03/25 00:22:57;;;;;;;56.92;32.03;;;;;;;5.55;64.32;101481.50;689141;28;39007;-58
2021/03/25 00:23:18;;;;;;;55.10;31.83;;;;;;;5.55;64.31;101486.88;690075;28;22546;-61
2021/03/25 00:23:39;;;;;;;55.78;32.67;;;;;;;5.54;64.32;101477.94;689591;28;23553;-59
2021/03/25 00:24:01;;;;;;;57.70;33.83;;;;;;;5.54;64.44;101477.94;689889;28;23599;-59
2021/03/25 00:24:23;;;;;;;58.92;34.20;;;;;;;5.53;64.54;101475.41;690216;28;1031;-62
2021/03/25 00:24:51;;;;;;;55.58;32.60;;;;;;;5.53;64.50;101475.41;688438;28;60639;-59
2021/03/25 00:25:15;;;;;;;58.30;32.78;;;;;;;5.52;64.54;101476.41;690733;28;918;-61
2021/03/25 00:25:37;;;;;;;56.42;32.80;;;;;;;5.52;64.57;101474.56;687582;28;69451;-62
2021/03/25 00:26:00;;;;;;;55.90;33.05;;;;;;;5.52;64.63;101479.06;689483;28;16017;-60
2021/03/25 00:26:24;;;;;;;57.97;33.10;;;;;;;5.52;64.63;101476.41;689822;28;15824;-61
2021/03/25 00:26:45;;;;;;;60.60;32.83;;;;;;;5.51;64.52;101472.84;686573;28;17220;-60
2021/03/25 00:27:07;;;;;;;58.58;33.33;;;;;;;5.51;64.55;101474.69;687496;28;6580;-61
2021/03/25 00:27:28;;;;;;;58.97;33.08;;;;;;;5.50;64.46;101473.84;685927;28;46415;-63
2021/03/25 00:27:50;;;;;;;55.65;32.42;;;;;;;5.50;64.65;101472.97;687530;28;1373;-61
2021/03/25 00:28:14;;;;;;;55.53;32.08;;;;;;;5.49;64.80;101472.13;687477;28;1390;-61
2021/03/25 00:28:36;;;;;;;63.10;34.80;;;;;;;5.51;64.70;101467.50;687404;28;15051;-61
2021/03/25 00:28:58;;;;;;;60.80;34.35;;;;;;;5.49;64.66;101473.97;690384;28;1025;-59
2021/03/25 00:29:19;;;;;;;57.75;34.67;;;;;;;5.49;64.77;101473.97;686897;28;21040;-60
2021/03/25 00:29:40;;;;;;;55.13;33.38;;;;;;;5.45;64.83;101472.50;687689;28;1200;-58
2021/03/25 00:30:13;;;;;;;56.53;33.15;;;;;;;5.49;64.80;101477.50;685779;28;61501;-59
2021/03/25 00:30:34;;;;;;;57.45;31.90;;;;;;;5.48;64.92;101472.25;683769;28;103434;-62
2021/03/25 00:30:55;;;;;;;;;;;;;;;5.48;64.85;101470.41;685041;28;11709;-61
2021/03/25 00:31:16;;;;;;;;;;;;;;;5.49;64.92;101463.25;687731;28;1531;-60
2021/03/25 00:31:38;;;;;;;;;;;;;;;5.48;64.67;101467.75;688269;28;933;-59
2021/03/25 00:31:58;;;;;;;;;;;;;;;5.48;64.71;101473.09;687968;28;1478;-61
2021/03/25 00:32:20;;;;;;;;;;;;;;;5.48;64.74;101469.56;687665;28;906;-60
2021/03/25 00:32:41;;;;;;;;;;;;;;;5.47;64.69;101471.41;688195;28;934;-61
2021/03/25 00:33:03;;;;;;;;;;;;;;;5.48;64.71;101469.56;690998;28;1003;-62
2021/03/25 00:33:24;;;;;;;;;;;;;;;5.47;64.66;101468.72;691176;28;737;-61
2021/03/25 00:33:45;;;;;;;;;;;;;;;5.47;64.79;101471.41;691041;28;1485;-62
2021/03/25 00:34:06;;;;;;;;;;;;;;;5.47;64.92;101465.19;691345;28;859;-62
2021/03/25 00:34:27;;;;;;;54.00;30.50;;;;;;;5.45;64.98;101468.00;691177;28;962;-61
2021/03/25 00:34:48;;;;;;;52.03;29.75;;;;;;;5.46;65.05;101466.19;691790;28;23810;-63
2021/03/25 00:35:11;;;;;;;51.40;30.17;;;;;;;5.45;65.19;101467.16;692874;28;15250;-61
2021/03/25 00:35:33;;;;;;;52.75;30.75;;;;;;;5.43;65.10;101466.44;690496;28;61809;-60
2021/03/25 00:35:54;;;;;;;50.13;30.25;;;;;;;5.45;65.15;101475.19;690922;28;45345;-60
2021/03/25 00:36:15;;;;;;;49.13;28.88;;;;;;;5.43;65.20;101469.13;692263;28;23463;-63
2021/03/25 00:36:36;;;;;;;;;;;;;;;5.44;65.29;101471.66;692026;28;22391;-62
2021/03/25 00:36:57;;;;;;;;;;;;;;;5.44;65.32;101468.13;690844;28;1898;-61
2021/03/25 00:37:18;;;;;;;;;;;;;;;5.43;65.42;101464.59;691509;28;986;-59
2021/03/25 00:37:39;;;;;;;;;;;;;;;5.41;65.26;101467.41;691540;28;964;-63
2021/03/25 00:37:59;;;;;;;;;;;;;;;5.41;65.15;101469.25;691190;28;1277;-61
2021/03/25 00:38:22;;;;;;;;;;;;;;;5.40;65.41;101467.53;691338;28;1058;-60
2021/03/25 00:38:46;;;;;;;;;;;;;;;5.38;65.38;101470.31;692990;28;4015;-63
2021/03/25 00:39:08;;;;;;;;;;;;;;;5.40;65.43;101475.56;693779;28;922;-61
2021/03/25 00:39:28;;;;;;;;;;;;;;;5.39;65.67;101465.81;693842;28;831;-62
2021/03/25 00:39:49;;;;;;;;;;;;;;;5.37;65.65;101471.28;693613;28;1030;-61
2021/03/25 00:40:11;;;;;;;;;;;;;;;5.38;65.55;101461.44;693637;28;1051;-60
2021/03/25 00:40:32;;;;;;;;;;;;;;;5.37;65.81;101465.94;692669;28;1501;-59
2021/03/25 00:40:53;;;;;;;;;;;;;;;5.36;65.90;101464.25;690932;28;905;-61
2021/03/25 00:41:15;;;;;;;;;;;;;;;5.35;65.97;101469.72;691198;28;952;-60
2021/03/25 00:41:41;;;;;;;;;;;;;;;5.34;65.99;101460.81;691191;28;1165;-62
2021/03/25 00:42:02;;;;;;;;;;;;;;;5.34;65.84;101466.19;690868;28;1778;-60
2021/03/25 00:42:22;;;;;;;;;;;;;;;5.34;65.64;101465.34;690150;28;957;-63
2021/03/25 00:42:43;;;;;;;;;;;;;;;5.34;65.72;101468.03;691327;28;929;-60
2021/03/25 00:43:05;;;;;;;;;;;;;;;5.32;65.71;101465.47;691208;28;848;-62
2021/03/25 00:43:26;;;;;;;;;;;;;;;5.33;65.47;101466.31;691026;28;891;-61
2021/03/25 00:43:47;;;;;;;;;;;;;;;5.33;65.53;101466.31;690661;28;1351;-62
2021/03/25 00:44:10;;;;;;;48.20;28.10;;;;;;;5.32;65.38;101467.31;690423;28;1020;-60
2021/03/25 00:44:32;;;;;;;51.75;28.52;;;;;;;5.31;65.29;101466.44;688230;28;69199;-62
2021/03/25 00:44:53;;;;;;;52.33;29.33;;;;;;;5.31;65.12;101466.44;689109;28;47073;-60
2021/03/25 00:45:22;;;;;;;50.65;29.50;;;;;;;5.29;65.06;101470.22;689157;28;18949;-61
2021/03/25 00:45:47;;;;;;;45.40;28.10;;;;;;;5.30;65.77;101455.84;685918;28;126536;-60
2021/03/25 00:46:08;;;;;;;46.35;28.05;;;;;;;5.27;65.46;101462.31;686883;28;74762;-60
2021/03/25 00:46:29;;;;;;;47.90;27.00;;;;;;;5.26;65.23;101467.81;686883;28;23318;-62
2021/03/25 00:46:51;;;;;;;47.17;27.38;;;;;;;5.28;65.24;101464.00;687661;28;894;-63
2021/03/25 00:47:12;;;;;;;47.90;27.90;;;;;;;5.29;65.28;101467.56;686852;28;1548;-60
2021/03/25 00:47:33;;;;;;;52.90;29.23;;;;;;;5.28;65.33;101472.03;686400;28;22371;-61
2021/03/25 00:47:54;;;;;;;51.37;28.80;;;;;;;5.26;65.32;101467.81;687132;28;22408;-60
2021/03/25 00:48:17;;;;;;;49.25;28.05;;;;;;;5.26;65.19;101463.28;686759;28;46438;-61
2021/03/25 00:48:39;;;;;;;48.97;28.25;;;;;;;5.27;65.33;101467.69;687320;28;69256;-60
2021/03/25 00:49:01;;;;;;;50.13;28.02;;;;;;;5.26;65.11;101467.81;689769;28;24588;-61
2021/03/25 00:49:24;;;;;;;49.20;27.73;;;;;;;5.26;65.08;101465.13;689749;28;14370;-62
2021/03/25 00:49:45;;;;;;;48.90;27.80;;;;;;;5.26;65.21;101473.16;688931;28;44388;-63
2021/03/25 00:50:08;;;;;;;48.17;27.50;;;;;;;5.25;64.99;101464.28;690081;28;23415;-62
2021/03/25 00:50:32;;;;;;;47.55;27.55;;;;;;;5.26;65.15;101465.13;685431;28;44534;-62
2021/03/25 00:50:55;;;;;;;51.75;28.50;;;;;;;5.25;65.17;101466.97;683879;28;64949;-62
2021/03/25 00:51:16;;;;;;;49.63;28.13;;;;;;;5.27;65.18;101473.03;685944;28;83333;-63
2021/03/25 00:51:38;;;;;;;46.70;27.33;;;;;;;5.28;65.42;101472.03;687828;28;21329;-62
2021/03/25 00:51:59;;;;;;;45.13;26.67;;;;;;;5.29;65.25;101467.56;685550;28;21530;-63
2021/03/25 00:52:20;;;;;;;47.33;27.00;;;;;;;5.27;65.36;101467.69;685865;28;22412;-62
2021/03/25 00:52:42;;;;;;;48.20;27.73;;;;;;;5.27;65.39;101465.00;686645;28;44365;-62
2021/03/25 00:53:04;;;;;;;50.47;27.88;;;;;;;5.29;65.26;101465.72;688299;28;22393;-63
2021/03/25 00:53:28;;;;;;;49.58;27.88;;;;;;;5.27;65.23;101467.69;682248;28;46969;-61
2021/03/25 00:53:50;;;;;;;48.72;28.23;;;;;;;5.27;65.34;101472.19;683121;28;115289;-62
2021/03/25 00:54:13;;;;;;;48.33;27.48;;;;;;;5.28;65.30;101472.03;687014;28;15421;-61
2021/03/25 00:54:34;;;;;;;42.85;25.55;;;;;;;5.29;65.23;101470.22;683843;28;23605;-63
2021/03/25 00:54:56;;;;;;;43.47;25.52;;;;;;;5.30;65.30;101474.59;684159;28;23552;-63
2021/03/25 00:55:19;;;;;;;45.65;26.10;;;;;;;5.29;65.27;101470.22;686325;28;1475;-62
2021/03/25 00:55:43;;;;;;;47.47;26.40;;;;;;;5.29;65.26;101473.75;682530;28;14731;-62
2021/03/25 00:56:06;;;;;;;44.90;25.90;;;;;;;5.30;65.11;101472.78;682293;28;46295;-62
2021/03/25 00:56:31;;;;;;;44.95;26.75;;;;;;;5.31;65.02;101468.28;685264;28;37838;-62
2021/03/25 00:56:52;;;;;;;45.30;27.33;;;;;;;5.29;64.90;101471.06;685441;28;44661;-62
2021/03/25 00:57:13;;;;;;;41.53;25.40;;;;;;;5.30;65.04;101471.91;686992;28;23416;-62
2021/03/25 00:57:34;;;;;;;45.38;26.80;;;;;;;5.30;64.97;101463.88;687300;28;12069;-63
2021/03/25 00:57:56;;;;;;;47.15;26.67;;;;;;;5.31;65.07;101468.28;688492;28;1427;-62
2021/03/25 00:58:18;;;;;;;47.70;27.60;;;;;;;5.29;65.01;101465.72;689153;28;44363;-62
2021/03/25 00:58:40;;;;;;;47.35;26.83;;;;;;;5.31;65.17;101469.09;688231;28;44376;-63
2021/03/25 00:59:06;;;;;;;49.20;26.25;;;;;;;5.32;65.19;101469.97;689509;28;23411;-63
2021/03/25 00:59:27;;;;;;;45.88;26.23;;;;;;;5.31;65.27;101465.59;688111;28;60023;-63
2021/03/25 00:59:49;;;;;;;43.10;25.27;;;;;;;5.33;65.44;101463.63;690385;28;14981;-62
2021/03/25 01:00:13;;;;;;;43.75;25.55;;;;;;;5.30;65.34;101464.75;685870;28;42745;-61
2021/03/25 01:00:37;;;;;;;46.08;26.58;;;;;;;5.33;65.54;101469.00;681766;28;90487;-59
2021/03/25 01:00:59;;;;;;;48.33;27.40;;;;;;;5.34;65.25;101465.34;682533;28;113666;-59
2021/03/25 01:01:21;;;;;;;46.88;27.65;;;;;;;5.32;65.40;101456.59;686038;28;1108;-58
2021/03/25 01:01:44;;;;;;;47.83;26.23;;;;;;;5.34;65.29;101468.03;686262;28;1071;-62
2021/03/25 01:02:05;;;;;;;50.13;27.40;;;;;;;5.33;65.40;101461.81;686985;28;11960;-60
2021/03/25 01:02:27;;;;;;;48.05;27.65;;;;;;;5.34;65.39;101468.88;687675;28;46502;-61
2021/03/25 01:02:48;;;;;;;47.90;26.55;;;;;;;5.34;65.55;101465.34;686750;28;21162;-62
2021/03/25 01:03:10;;;;;;;46.60;26.92;;;;;;;5.33;65.64;101461.81;684850;28;10208;-60
2021/03/25 01:03:31;;;;;;;45.45;26.65;;;;;;;5.35;65.50;101469.72;683584;28;38482;-60
2021/03/25 01:03:52;;;;;;;51.58;27.48;;;;;;;5.34;65.60;101468.03;684157;28;21887;-60
2021/03/25 01:04:13;;;;;;;48.90;27.52;;;;;;;5.34;65.55;101468.03;684588;28;14841;-61
2021/03/25 01:04:38;;;;;;;47.60;27.35;;;;;;;5.33;65.57;101467.19;684019;28;65897;-61
2021/03/25 01:04:59;;;;;;;47.30;26.75;;;;;;;5.33;65.46;101466.31;686386;28;69295;-59
2021/03/25 01:05:21;;;;;;;49.05;27.35;;;;;;;5.33;65.47;101466.31;689764;28;23263;-61
2021/03/25 01:05:42;;;;;;;47.28;26.38;;;;;;;5.33;65.40;101466.31;687427;28;69395;-61
2021/03/25 01:06:04;;;;;;;46.17;26.83;;;;;;;5.33;65.58;101471.66;690922;28;22319;-62
2021/03/25 01:06:25;;;;;;;46.63;27.30;;;;;;;5.32;65.69;101462.78;688893;28;45065;-63
2021/03/25 01:06:46;;;;;;;50.45;28.45;;;;;;;5.32;65.83;101469.97;689153;28;13156;-63
2021/03/25 01:07:09;;;;;;;49.40;28.33;;;;;;;5.32;65.53;101467.31;686925;28;1411;-63
2021/03/25 01:07:34;;;;;;;51.05;28.52;;;;;;;5.30;65.36;101464.75;682645;28;61968;-61
2021/03/25 01:07:57;;;;;;;50.58;28.85;;;;;;;5.27;65.63;101467.69;685125;28;1480;-63
2021/03/25 01:08:18;;;;;;;48.40;27.98;;;;;;;5.29;65.53;101473.75;681436;28;44409;-61
2021/03/25 01:08:39;;;;;;;48.85;28.10;;;;;;;5.28;65.37;101466.69;683178;28;44376;-61
2021/03/25 01:09:01;;;;;;;50.30;28.02;;;;;;;5.26;65.39;101467.81;684183;28;43363;-62
2021/03/25 01:09:25;;;;;;;51.50;29.23;;;;;;;5.27;65.63;101467.69;685454;28;16687;-59
2021/03/25 01:09:46;;;;;;;51.25;29.08;;;;;;;5.29;65.33;101464.88;685197;28;66148;-62
2021/03/25 01:10:10;;;;;;;49.47;27.33;;;;;;;5.27;65.47;101466.84;685995;28;18873;-63
2021/03/25 01:10:38;;;;;;;50.05;27.23;;;;;;;5.24;65.30;101466.09;677786;28;137756;-63
2021/03/25 01:11:08;;;;;;;47.13;27.25;;;;;;;5.24;65.37;101465.25;677410;29;61499;-63
2021/03/25 01:11:30;;;;;;;46.20;27.63;;;;;;;5.23;65.35;101463.53;677400;29;136462;-63
2021/03/25 01:11:51;;;;;;;47.03;27.33;;;;;;;5.23;65.38;101467.09;681405;28;27827;-63
2021/03/25 01:12:13;;;;;;;45.78;26.67;;;;;;;5.22;65.46;101464.53;682881;28;45082;-63
2021/03/25 01:12:34;;;;;;;48.75;26.52;;;;;;;5.20;65.33;101466.47;686406;28;22536;-63
2021/03/25 01:13:00;;;;;;;47.90;26.90;;;;;;;5.19;65.50;101462.09;685487;28;38388;-63
2021/03/25 01:13:24;;;;;;;47.85;27.10;;;;;;;5.19;65.45;101470.13;684436;28;46468;-63
2021/03/25 01:13:48;;;;;;;48.58;27.08;;;;;;;5.17;65.64;101462.22;683162;28;108258;-61
2021/03/25 01:14:10;;;;;;;45.50;25.92;;;;;;;5.18;65.43;101466.59;681486;28;92300;-62
2021/03/25 01:14:32;;;;;;;47.08;27.23;;;;;;;5.18;65.47;101468.41;681438;28;45368;-63
2021/03/25 01:14:54;;;;;;;46.08;26.23;;;;;;;5.18;65.50;101466.59;682543;28;33220;-63
2021/03/25 01:15:16;;;;;;;46.85;26.92;;;;;;;5.16;65.50;101462.34;683508;28;46324;-63
2021/03/25 01:15:42;;;;;;;44.28;26.08;;;;;;;5.17;65.48;101458.66;684857;28;37813;-63
2021/03/25 01:16:05;;;;;;;46.70;25.90;;;;;;;5.17;65.53;101462.22;689150;28;44388;-63
2021/03/25 01:16:28;;;;;;;44.58;25.38;;;;;;;5.15;65.60;101457.94;690540;28;68337;-63
2021/03/25 01:16:51;;;;;;;48.78;26.52;;;;;;;5.15;65.56;101466.00;687071;28;92343;-62
2021/03/25 01:17:13;;;;;;;43.72;25.85;;;;;;;5.14;65.55;101459.78;687105;28;67228;-63
2021/03/25 01:17:41;;;;;;;43.65;25.88;;;;;;;5.14;65.63;101462.47;689620;28;23394;-62
2021/03/25 01:18:05;;;;;;;47.08;26.88;;;;;;;5.13;65.53;101463.44;684041;28;121009;-63
2021/03/25 01:18:27;;;;;;;49.97;26.75;;;;;;;5.13;65.52;101457.25;680935;28;69764;-62
2021/03/25 01:18:49;;;;;;;46.28;26.50;;;;;;;5.13;65.35;101465.28;683306;28;45649;-61
2021/03/25 01:19:14;;;;;;;47.27;26.73;;;;;;;5.14;65.74;101466.94;685596;28;92421;-63
2021/03/25 01:19:38;;;;;;;49.08;27.25;;;;;;;5.14;65.56;101458.91;686266;28;106118;-62
2021/03/25 01:19:59;;;;;;;44.85;25.65;;;;;;;5.13;65.56;101463.44;686514;28;60713;-61
2021/03/25 01:20:24;;;;;;;43.58;25.88;;;;;;;5.13;65.59;101459.91;686668;28;1403;-60
2021/03/25 01:20:46;;;;;;;45.47;26.33;;;;;;;5.14;65.45;101461.59;684845;28;114190;-60
2021/03/25 01:21:07;;;;;;;46.00;26.50;;;;;;;5.14;65.66;101461.59;688136;28;32979;-61
2021/03/25 01:21:29;;;;;;;46.88;26.20;;;;;;;5.14;65.65;101465.16;684978;28;23420;-61
2021/03/25 01:21:51;;;;;;;48.67;26.63;;;;;;;5.14;65.57;101469.63;686358;28;24728;-59
2021/03/25 01:22:12;;;;;;;48.55;26.35;;;;;;;5.14;65.54;101457.13;686948;28;43006;-61
2021/03/25 01:22:34;;;;;;;47.03;26.20;;;;;;;5.14;65.62;101467.81;685313;28;19999;-61
2021/03/25 01:22:59;;;;;;;45.83;26.27;;;;;;;5.13;65.55;101462.59;684270;28;37807;-61
2021/03/25 01:23:21;;;;;;;48.63;26.95;;;;;;;5.15;65.76;101464.16;684401;28;21295;-61
2021/03/25 01:23:42;;;;;;;47.85;26.55;;;;;;;5.15;65.66;101461.47;684851;28;64959;-61
2021/03/25 01:24:05;;;;;;;46.17;26.52;;;;;;;5.13;65.82;101459.91;689348;28;11564;-61
2021/03/25 01:24:27;;;;;;;48.97;26.67;;;;;;;5.15;65.79;101466.00;689068;28;55144;-61
2021/03/25 01:24:48;;;;;;;48.03;26.08;;;;;;;5.14;65.75;101464.28;692166;28;23297;-61
2021/03/25 01:25:11;;;;;;;49.20;26.23;;;;;;;5.12;65.80;101459.03;691532;28;37659;-61
2021/03/25 01:25:34;;;;;;;51.35;27.33;;;;;;;5.15;65.94;101457.94;689113;28;69483;-61
2021/03/25 01:25:55;;;;;;;47.08;26.58;;;;;;;5.15;65.81;101463.31;689828;28;46362;-61
2021/03/25 01:26:17;;;;;;;47.72;26.35;;;;;;;5.14;66.06;101458.91;691285;28;33299;-61
2021/03/25 01:26:39;;;;;;;47.47;26.63;;;;;;;5.15;66.14;101468.66;691480;28;46192;-61
2021/03/25 01:27:04;;;;;;;50.30;27.08;;;;;;;5.15;66.16;101460.63;687347;28;76439;-59
2021/03/25 01:27:25;;;;;;;48.85;26.67;;;;;;;5.15;66.07;101458.78;684886;28;46393;-61
2021/03/25 01:27:47;;;;;;;46.13;26.98;;;;;;;5.15;66.15;101460.63;684490;28;46605;-61
2021/03/25 01:28:12;;;;;;;45.70;26.33;;;;;;;5.14;66.17;101458.91;684820;28;1390;-61
2021/03/25 01:28:34;;;;;;;44.88;25.73;;;;;;;5.17;66.10;101464.03;680762;28;98516;-60
2021/03/25 01:28:59;;;;;;;49.28;27.05;;;;;;;5.17;66.24;101461.34;682852;28;9849;-60
2021/03/25 01:29:21;;;;;;;48.28;26.48;;;;;;;5.18;66.25;101463.06;681056;28;138720;-60
2021/03/25 01:29:43;;;;;;;48.10;26.88;;;;;;;5.17;66.25;101461.34;688361;28;23456;-61
2021/03/25 01:30:05;;;;;;;46.90;26.92;;;;;;;5.17;66.10;101464.91;686599;28;22485;-61
2021/03/25 01:30:29;;;;;;;47.72;27.35;;;;;;;5.16;66.13;101455.16;685624;28;69457;-61
2021/03/25 01:30:51;;;;;;;48.42;27.38;;;;;;;5.19;66.19;101464.78;685857;28;37954;-60
2021/03/25 01:31:13;;;;;;;46.22;26.13;;;;;;;5.18;66.04;101461.22;683058;28;21346;-61
2021/03/25 01:31:34;;;;;;;45.58;26.05;;;;;;;5.18;66.57;101460.38;681413;29;22390;-61
2021/03/25 01:31:58;;;;;;;49.28;27.02;;;;;;;5.18;66.23;101463.91;680113;28;101351;-61
2021/03/25 01:32:20;;;;;;;45.97;26.60;;;;;;;5.19;66.13;101468.28;684242;28;1315;-61
2021/03/25 01:32:43;;;;;;;48.67;27.25;;;;;;;5.19;66.33;101462.94;682213;28;36061;-61
2021/03/25 01:33:05;;;;;;;48.35;27.35;;;;;;;5.18;66.26;101458.56;684865;28;23567;-61
2021/03/25 01:33:27;;;;;;;47.13;27.15;;;;;;;5.20;66.30;101461.09;682206;28;60789;-61
2021/03/25 01:33:48;;;;;;;48.20;26.65;;;;;;;5.20;66.27;101464.66;681595;28;46765;-61
2021/03/25 01:34:12;;;;;;;48.40;26.83;;;;;;;5.20;66.24;101459.28;682816;28;21521;-61
2021/03/25 01:34:34;;;;;;;50.40;27.08;;;;;;;5.18;66.08;101461.22;681121;28;90662;-60
2021/03/25 01:34:56;;;;;;;51.08;27.67;;;;;;;5.20;66.19;101464.66;683948;28;44398;-60
2021/03/25 01:35:19;;;;;;;46.70;26.30;;;;;;;5.20;66.21;101461.09;683348;28;67511;-60
2021/03/25 01:35:41;;;;;;;45.47;26.27;;;;;;;5.20;66.21;101459.28;686015;28;22416;-61
2021/03/25 01:36:05;;;;;;;45.97;26.17;;;;;;;5.21;66.20;101460.13;687142;28;82804;-61
2021/03/25 01:36:27;;;;;;;44.42;26.02;;;;;;;5.20;66.04;101456.63;687720;28;66704;-62
2021/03/25 01:36:49;;;;;;;48.33;27.60;;;;;;;5.21;66.00;101458.31;686286;28;46226;-61
2021/03/25 01:37:11;;;;;;;48.35;26.52;;;;;;;5.23;65.98;101460.84;684878;28;67598;-61
2021/03/25 01:37:46;;;;;;;47.63;26.40;;;;;;;5.22;66.23;101451.13;679755;28;137319;-61
2021/03/25 01:38:08;;;;;;;48.10;27.02;;;;;;;5.22;66.07;101460.00;682752;28;47263;-61
2021/03/25 01:38:29;;;;;;;48.45;26.40;;;;;;;5.23;66.09;101460.84;678211;29;39849;-61
2021/03/25 01:38:52;;;;;;;47.20;26.55;;;;;;;5.23;66.04;101455.50;679156;28;69451;-61
2021/03/25 01:39:14;;;;;;;46.78;26.65;;;;;;;5.23;66.05;101463.53;683861;28;21554;-61
2021/03/25 01:39:36;;;;;;;48.92;26.65;;;;;;;5.23;65.75;101459.06;681274;28;44927;-59
2021/03/25 01:39:57;;;;;;;47.38;26.75;;;;;;;5.23;65.86;101455.50;685220;28;43584;-65
2021/03/25 01:40:22;;;;;;;46.47;26.42;;;;;;;5.24;65.80;101458.06;686645;28;22379;-61
2021/03/25 01:40:45;;;;;;;49.90;27.10;;;;;;;5.21;65.87;101452.09;687732;28;91968;-63
2021/03/25 01:41:08;;;;;;;49.83;26.42;;;;;;;5.24;65.98;101467.94;685898;28;115897;-61
2021/03/25 01:41:31;;;;;;;48.08;26.45;;;;;;;5.26;65.91;101452.56;688475;28;1228;-62
2021/03/25 01:41:55;;;;;;;47.28;26.88;;;;;;;5.26;65.73;101465.13;681939;28;61772;-62
2021/03/25 01:42:23;;;;;;;46.65;25.30;;;;;;;5.26;65.89;101452.56;683455;28;942;-59
2021/03/25 01:42:45;;;;;;;47.65;26.83;;;;;;;5.26;65.86;101455.25;680954;28;59280;-62
2021/03/25 01:43:13;;;;;;;46.78;25.70;;;;;;;5.27;65.58;101453.44;683806;28;1826;-62
2021/03/25 01:43:40;;;;;;;45.72;25.27;;;;;;;5.26;65.50;101455.25;684369;28;61634;-63
2021/03/25 01:44:02;;;;;;;47.63;26.63;;;;;;;5.27;65.62;101451.59;687823;28;60949;-63
2021/03/25 01:44:30;;;;;;;49.42;26.90;;;;;;;5.27;65.59;101456.97;684830;28;80132;-63
2021/03/25 01:44:52;;;;;;;48.35;26.40;;;;;;;5.26;65.66;101454.41;680403;28;112180;-62
2021/03/25 01:45:38;;;;;;;50.30;26.77;;;;;;;5.26;65.37;101455.25;683161;28;44358;-63
2021/03/25 01:46:07;;;;;;;41.60;24.33;;;;;;;5.25;65.12;101458.94;679762;28;137402;-63
2021/03/25 01:46:30;;;;;;;46.42;25.98;;;;;;;5.26;65.30;101451.72;679017;28;161051;-63
2021/03/25 01:46:52;;;;;;;45.33;25.40;;;;;;;5.24;65.06;101452.69;683511;28;92194;-63